createdAt,value
2019-04-30T00:02:05.678Z,81.38
2019-04-30T00:06:12.626Z,81.04
2019-04-30T00:10:19.371Z,80.79
2019-04-30T00:14:32.178Z,81.05
2019-04-30T00:18:39.389Z,80.30
2019-04-30T00:22:47.046Z,80.25
2019-04-30T00:26:55.025Z,79.62
2019-04-30T00:31:01.542Z,79.62
2019-04-30T00:35:11.739Z,79.75
2019-04-30T00:39:17.226Z,79.53
2019-04-30T00:43:25.254Z,79.58
2019-04-30T00:47:32.077Z,79.60
2019-04-30T00:51:39.065Z,79.15
2019-04-30T00:55:48.364Z,78.89
2019-04-30T00:59:54.915Z,79.33
2019-04-30T01:04:09.380Z,79.05
2019-04-30T01:08:16.134Z,78.65
2019-04-30T01:12:27.497Z,79.06
2019-04-30T01:16:33.211Z,78.77
2019-04-30T01:20:40.713Z,78.17
2019-04-30T01:24:49.697Z,78.75
2019-04-30T01:29:00.559Z,78.58
2019-04-30T01:33:04.630Z,78.73
2019-04-30T01:37:11.386Z,78.58
2019-04-30T01:41:21.999Z,78.98
2019-04-30T01:45:28.209Z,78.70
2019-04-30T01:49:41.934Z,78.88
2019-04-30T01:53:43.826Z,78.52
2019-04-30T01:58:04.494Z,78.29
2019-04-30T02:02:11.455Z,78.20
2019-04-30T02:06:19.703Z,78.10
2019-04-30T02:10:28.405Z,78.39
2019-04-30T02:14:34.915Z,77.55
2019-04-30T02:18:41.612Z,77.85
2019-04-30T02:22:48.676Z,76.97
2019-04-30T02:26:55.424Z,77.08
2019-04-30T02:31:02.240Z,77.48
2019-04-30T02:35:28.734Z,77.15
2019-04-30T02:39:34.893Z,76.75
2019-04-30T02:43:43.663Z,76.33
2019-04-30T02:47:51.187Z,76.19
2019-04-30T02:52:01.055Z,76.28
2019-04-30T02:56:09.959Z,75.74
2019-04-30T03:00:20.502Z,75.72
2019-04-30T03:04:29.375Z,75.55
2019-04-30T03:08:36.245Z,75.95
2019-04-30T03:12:42.992Z,75.39
2019-04-30T03:17:12.787Z,74.78
2019-04-30T03:21:40.489Z,75.05
2019-04-30T03:25:49.996Z,74.99
2019-04-30T03:29:55.834Z,75.45
2019-04-30T03:34:03.518Z,74.92
2019-04-30T03:38:10.272Z,74.99
2019-04-30T03:42:19.917Z,75.09
2019-04-30T03:46:29.655Z,74.52
2019-04-30T03:50:49.285Z,73.94
2019-04-30T03:54:45.754Z,74.68
2019-04-30T03:58:52.514Z,74.22
2019-04-30T04:02:59.921Z,73.72
2019-04-30T04:07:35.429Z,73.55
2019-04-30T04:11:43.901Z,73.43
2019-04-30T04:15:50.648Z,73.73
2019-04-30T04:19:59.720Z,73.06
2019-04-30T04:24:10.433Z,73.51
2019-04-30T04:28:15.879Z,72.91
2019-04-30T04:32:24.400Z,72.93
2019-04-30T04:36:32.699Z,73.05
2019-04-30T04:40:40.062Z,73.19
2019-04-30T04:44:50.433Z,73.16
2019-04-30T04:48:59.383Z,73.00
2019-04-30T04:53:11.565Z,73.05
2019-04-30T04:57:22.227Z,72.80
2019-04-30T05:01:28.866Z,72.47
2019-04-30T05:05:35.978Z,72.76
2019-04-30T05:09:42.747Z,72.94
2019-04-30T05:13:49.567Z,73.02
2019-04-30T05:17:56.989Z,72.44
2019-04-30T05:22:03.808Z,73.02
2019-04-30T05:26:11.103Z,72.54
2019-04-30T05:30:19.797Z,72.17
2019-04-30T05:34:28.705Z,72.39
2019-04-30T05:38:35.155Z,71.80
2019-04-30T05:42:41.862Z,71.99
2019-04-30T05:46:49.383Z,71.86
2019-04-30T05:50:56.444Z,71.25
2019-04-30T05:55:03.232Z,71.13
2019-04-30T05:59:10.220Z,70.53
2019-04-30T06:03:27.994Z,70.11
2019-04-30T06:07:26.547Z,69.93
2019-04-30T06:12:03.001Z,69.57
2019-04-30T06:16:13.159Z,69.24
2019-04-30T06:20:21.060Z,68.99
2019-04-30T06:24:30.139Z,68.56
2019-04-30T06:28:36.926Z,67.28
2019-04-30T06:32:45.050Z,67.24
2019-04-30T06:36:54.170Z,65.51
2019-04-30T06:41:01.001Z,64.78
2019-04-30T06:45:09.257Z,62.78
2019-04-30T06:49:19.417Z,60.43
2019-04-30T06:53:26.284Z,60.26
2019-04-30T06:57:33.002Z,59.50
2019-04-30T07:01:39.706Z,58.98
2019-04-30T07:05:48.632Z,57.65
2019-04-30T07:10:16.761Z,56.87
2019-04-30T07:14:22.590Z,55.62
2019-04-30T07:18:29.488Z,56.62
2019-04-30T07:22:40.737Z,56.72
2019-04-30T07:26:44.776Z,55.33
2019-04-30T07:31:07.667Z,55.34
2019-04-30T07:35:00.112Z,55.52
2019-04-30T07:39:10.063Z,54.39
2019-04-30T07:43:18.818Z,52.22
2019-04-30T07:47:25.511Z,53.08
2019-04-30T07:51:37.745Z,52.01
2019-04-30T07:55:40.702Z,51.92
2019-04-30T07:59:49.696Z,52.37
2019-04-30T08:04:09.018Z,51.68
2019-04-30T08:08:21.554Z,52.09
2019-04-30T08:12:29.955Z,52.54
2019-04-30T08:16:32.773Z,50.59
2019-04-30T08:20:39.798Z,49.92
2019-04-30T08:24:46.703Z,48.15
2019-04-30T08:28:53.375Z,48.89
2019-04-30T08:33:00.108Z,48.76
2019-04-30T08:37:16.775Z,47.71
2019-04-30T08:41:15.452Z,44.16
2019-04-30T08:45:22.269Z,43.98
2019-04-30T08:49:30.415Z,43.34
2019-04-30T08:53:38.491Z,42.07
2019-04-30T08:57:49.862Z,39.86
2019-04-30T09:02:00.018Z,40.32
2019-04-30T09:06:10.775Z,39.61
2019-04-30T09:10:19.218Z,37.12
2019-04-30T09:14:26.215Z,36.38
2019-04-30T09:18:33.104Z,35.93
2019-04-30T09:22:40.073Z,36.94
2019-04-30T09:26:46.832Z,37.78
2019-04-30T09:30:53.771Z,36.53
2019-04-30T09:35:00.810Z,34.49
2019-04-30T09:39:09.081Z,34.98
2019-04-30T09:43:15.864Z,34.34
2019-04-30T09:47:22.539Z,33.77
2019-04-30T09:51:30.573Z,32.53
2019-04-30T09:55:38.941Z,32.08
2019-04-30T09:59:48.468Z,32.05
2019-04-30T10:03:55.537Z,31.44
2019-04-30T10:08:02.713Z,31.66
2019-04-30T10:12:14.651Z,32.19
2019-04-30T10:16:46.403Z,31.08
2019-04-30T10:20:53.330Z,31.38
2019-04-30T10:25:00.275Z,31.75
2019-04-30T10:29:08.751Z,32.78
2019-04-30T10:33:15.803Z,32.48
2019-04-30T10:37:22.697Z,32.29
2019-04-30T10:41:31.745Z,32.30
2019-04-30T10:45:39.184Z,31.96
2019-04-30T10:49:45.996Z,31.32
2019-04-30T10:53:52.819Z,31.79
2019-04-30T10:57:59.717Z,31.34
2019-04-30T11:02:08.945Z,31.09
2019-04-30T11:06:15.474Z,30.35
2019-04-30T11:10:25.118Z,30.52
2019-04-30T11:14:30.830Z,30.17
2019-04-30T11:18:37.931Z,29.01
2019-04-30T11:22:44.931Z,28.07
2019-04-30T11:26:52.435Z,28.66
2019-04-30T11:31:26.277Z,28.22
2019-04-30T11:35:33.050Z,28.20
2019-04-30T11:39:39.802Z,28.90
2019-04-30T11:43:46.620Z,27.41
2019-04-30T11:47:53.795Z,29.62
2019-04-30T11:52:00.598Z,27.98
2019-04-30T11:56:07.480Z,28.26
2019-04-30T12:00:21.224Z,28.30
2019-04-30T12:04:29.894Z,27.86
2019-04-30T12:08:39.268Z,29.33
2019-04-30T12:12:45.925Z,28.39
2019-04-30T12:16:53.653Z,27.60
2019-04-30T12:21:00.569Z,29.37
2019-04-30T12:25:15.036Z,28.25
2019-04-30T12:29:21.795Z,27.92
2019-04-30T12:33:28.479Z,29.05
2019-04-30T12:37:35.663Z,28.00
2019-04-30T12:41:42.354Z,27.60
2019-04-30T12:46:02.052Z,28.18
2019-04-30T12:50:03.793Z,27.36
2019-04-30T12:54:20.680Z,28.11
2019-04-30T12:58:27.356Z,28.62
2019-04-30T13:02:34.078Z,28.05
2019-04-30T13:06:41.147Z,28.63
2019-04-30T13:10:48.539Z,29.18
2019-04-30T13:14:55.519Z,29.11
2019-04-30T13:19:02.196Z,29.63
2019-04-30T13:23:08.870Z,29.02
2019-04-30T13:27:15.532Z,28.68
2019-04-30T13:31:22.394Z,29.18
2019-04-30T13:35:29.139Z,28.39
2019-04-30T13:39:49.793Z,28.72
2019-04-30T13:44:06.621Z,29.03
2019-04-30T13:48:13.501Z,28.22
2019-04-30T13:52:20.277Z,28.22
2019-04-30T13:56:28.677Z,27.43
2019-04-30T14:00:35.615Z,28.74
2019-04-30T14:04:54.741Z,28.54
2019-04-30T14:09:03.293Z,28.58
2019-04-30T14:13:12.480Z,28.58
2019-04-30T14:17:19.333Z,29.28
2019-04-30T14:21:34.665Z,29.34
2019-04-30T14:25:35.037Z,28.82
2019-04-30T14:29:41.782Z,29.18
2019-04-30T14:33:48.670Z,29.09
2019-04-30T14:37:55.396Z,29.67
2019-04-30T14:42:02.837Z,29.21
2019-04-30T14:46:30.256Z,29.44
2019-04-30T14:50:38.553Z,29.86
2019-04-30T14:55:08.754Z,28.93
2019-04-30T14:59:32.948Z,28.93
2019-04-30T15:03:39.855Z,30.75
2019-04-30T15:07:46.566Z,30.90
2019-04-30T15:11:53.401Z,31.91
2019-04-30T15:16:00.221Z,32.34
2019-04-30T15:20:08.768Z,32.61
2019-04-30T15:24:23.385Z,33.08
2019-04-30T15:28:32.218Z,33.43
2019-04-30T15:32:40.559Z,34.32
2019-04-30T15:36:49.158Z,35.05
2019-04-30T15:40:56.134Z,34.25
2019-04-30T15:45:03.072Z,35.39
2019-04-30T15:49:09.846Z,35.46
2019-04-30T15:53:16.716Z,35.59
2019-04-30T15:57:23.431Z,36.21
2019-04-30T16:01:30.317Z,35.99
2019-04-30T16:05:40.278Z,36.10
2019-04-30T16:09:58.600Z,36.10
2019-04-30T16:19:41.523Z,36.33
2019-04-30T16:23:49.594Z,37.01
2019-04-30T16:27:57.308Z,37.16
2019-04-30T16:32:04.147Z,37.63
2019-04-30T16:36:11.099Z,38.44
2019-04-30T16:40:19.506Z,37.80
2019-04-30T16:44:26.418Z,38.05
2019-04-30T16:48:33.417Z,38.24
2019-04-30T16:52:40.159Z,38.39
2019-04-30T16:56:56.412Z,38.68
2019-04-30T17:00:55.595Z,39.24
2019-04-30T17:05:11.246Z,38.21
2019-04-30T17:09:24.113Z,38.48
2019-04-30T17:13:39.755Z,38.46
2019-04-30T17:17:48.883Z,39.26
2019-04-30T17:21:54.965Z,38.84
2019-04-30T17:26:01.889Z,39.29
2019-04-30T17:30:11.014Z,40.53
2019-04-30T17:34:18.045Z,39.93
2019-04-30T17:38:24.763Z,41.71
2019-04-30T17:42:31.620Z,40.15
2019-04-30T17:46:38.580Z,40.66
2019-04-30T17:50:45.451Z,40.22
2019-04-30T17:54:52.412Z,40.57
2019-04-30T17:58:59.229Z,40.71
2019-04-30T18:03:08.862Z,40.54
2019-04-30T18:07:16.467Z,40.46
2019-04-30T18:11:23.310Z,40.89
2019-04-30T18:15:31.176Z,41.89
2019-04-30T18:19:55.420Z,41.34
2019-04-30T18:24:13.635Z,42.00
2019-04-30T18:28:21.407Z,42.39
2019-04-30T18:32:30.993Z,43.52
2019-04-30T18:36:39.304Z,43.24
2019-04-30T18:40:46.297Z,44.00
2019-04-30T18:44:52.982Z,43.83
2019-04-30T18:48:59.879Z,43.67
2019-04-30T18:53:12.682Z,44.73
2019-04-30T18:57:19.511Z,44.64
2019-04-30T19:01:27.129Z,45.20
2019-04-30T19:05:33.945Z,45.80
2019-04-30T19:09:50.076Z,46.22
2019-04-30T19:14:24.584Z,46.61
2019-04-30T19:18:42.716Z,46.85
2019-04-30T19:22:49.484Z,47.17
2019-04-30T19:26:56.215Z,47.65
2019-04-30T19:31:03.026Z,47.89
2019-04-30T19:35:09.968Z,48.51
2019-04-30T19:39:19.524Z,48.75
2019-04-30T19:43:28.488Z,48.92
2019-04-30T19:47:35.304Z,49.48
2019-04-30T19:51:42.049Z,49.35
2019-04-30T19:55:49.218Z,49.62
2019-04-30T19:59:56.044Z,50.22
2019-04-30T20:04:02.755Z,50.23
2019-04-30T20:08:11.137Z,50.25
2019-04-30T20:12:18.862Z,50.75
2019-04-30T20:16:25.861Z,51.00
2019-04-30T20:20:34.996Z,51.06
2019-04-30T20:24:42.332Z,51.37
2019-04-30T20:28:49.223Z,50.96
2019-04-30T20:32:56.133Z,51.21
2019-04-30T20:37:03.041Z,51.12
2019-04-30T20:41:10.689Z,51.24
2019-04-30T20:45:18.834Z,51.39
2019-04-30T20:49:25.798Z,51.18
2019-04-30T20:53:32.767Z,51.74
2019-04-30T20:57:39.595Z,51.93
2019-04-30T21:01:46.548Z,52.10
2019-04-30T21:05:53.647Z,52.46
2019-04-30T21:10:00.536Z,52.64
2019-04-30T21:14:09.010Z,52.93
2019-04-30T21:18:16.008Z,53.16
2019-04-30T21:22:25.946Z,53.09
2019-04-30T21:26:35.123Z,53.52
2019-04-30T21:30:42.147Z,53.29
2019-04-30T21:34:55.995Z,53.22
2019-04-30T21:39:02.858Z,53.83
2019-04-30T21:43:11.607Z,53.77
2019-04-30T21:47:18.611Z,53.75
2019-04-30T21:51:25.706Z,54.32
2019-04-30T21:55:32.480Z,54.15
2019-04-30T21:59:39.311Z,54.43
2019-04-30T22:03:46.567Z,56.35
2019-04-30T22:07:53.331Z,54.27
2019-04-30T22:12:01.688Z,54.37
2019-04-30T22:16:08.836Z,54.34
2019-04-30T22:20:15.691Z,54.54
2019-04-30T22:24:22.483Z,55.04
2019-04-30T22:28:29.246Z,55.09
2019-04-30T22:32:36.632Z,55.59
2019-04-30T22:36:48.839Z,55.56
2019-04-30T22:40:55.447Z,55.92
2019-04-30T22:45:03.750Z,56.48
2019-04-30T22:49:10.808Z,56.53
2019-04-30T22:53:17.544Z,56.84
2019-04-30T22:57:24.430Z,56.97
2019-04-30T23:01:49.799Z,57.04
2019-04-30T23:05:56.817Z,57.36
2019-04-30T23:10:03.755Z,57.42
2019-04-30T23:14:10.560Z,57.40
2019-04-30T23:18:17.305Z,57.46
2019-04-30T23:22:24.263Z,57.47
2019-04-30T23:26:31.041Z,57.36
2019-04-30T23:30:37.980Z,57.46
2019-04-30T23:34:44.770Z,57.93
2019-04-30T23:38:51.477Z,57.78
2019-04-30T23:42:58.388Z,58.28
2019-04-30T23:47:05.165Z,58.15
2019-04-30T23:51:12.003Z,58.55
2019-04-30T23:55:18.839Z,59.01
2019-04-30T23:59:25.646Z,59.29
